NCAR-RAP Real-Time Weather Data

Output produced by METARs form (10 April 2020  07:23 UTC)
found at http://weather.rap.ucar.edu/surface/
 
KPVD 100651Z 27008KT 10SM CLR 04/M04 A2921 RMK AO2 SLP891 T00391044